sensor_id;sensor_type;location;lat;lon;timestamp;pressure;altitude;pressure_sealevel;temperature;humidity
43420;BME280;29017;51.514;-0.178;2023-05-01T00:00:24;101359.66;;;15.97;67.76
43420;BME280;29017;51.514;-0.178;2023-05-01T00:02:51;101356.03;;;15.98;67.33
43420;BME280;29017;51.514;-0.178;2023-05-01T00:05:18;101351.03;;;15.95;67.23
43420;BME280;29017;51.514;-0.178;2023-05-01T00:07:45;101352.41;;;15.91;67.53
43420;BME280;29017;51.514;-0.178;2023-05-01T00:10:12;101346.25;;;15.91;67.87
43420;BME280;29017;51.514;-0.178;2023-05-01T00:12:39;101353.59;;;15.89;67.70
43420;BME280;29017;51.514;-0.178;2023-05-01T00:15:06;101347.78;;;15.85;67.91
43420;BME280;29017;51.514;-0.178;2023-05-01T00:17:33;101345.66;;;15.80;68.29
43420;BME280;29017;51.514;-0.178;2023-05-01T00:20:00;101343.84;;;15.81;68.59
43420;BME280;29017;51.514;-0.178;2023-05-01T00:22:27;101344.81;;;15.80;68.42
43420;BME280;29017;51.514;-0.178;2023-05-01T00:24:54;101338.06;;;15.77;68.70
43420;BME280;29017;51.514;-0.178;2023-05-01T00:27:21;101343.88;;;15.73;69.08
43420;BME280;29017;51.514;-0.178;2023-05-01T00:29:47;101337.28;;;15.69;69.37
43420;BME280;29017;51.514;-0.178;2023-05-01T00:32:14;101335.63;;;15.68;71.26
43420;BME280;29017;51.514;-0.178;2023-05-01T00:34:41;101331.97;;;15.69;71.07
43420;BME280;29017;51.514;-0.178;2023-05-01T00:37:08;101332.13;;;15.67;70.60
43420;BME280;29017;51.514;-0.178;2023-05-01T00:39:35;101326.69;;;15.61;70.61
43420;BME280;29017;51.514;-0.178;2023-05-01T00:42:02;101320.44;;;15.54;70.85
43420;BME280;29017;51.514;-0.178;2023-05-01T00:44:29;101312.94;;;15.49;70.77
43420;BME280;29017;51.514;-0.178;2023-05-01T00:46:56;101314.13;;;15.47;70.88
43420;BME280;29017;51.514;-0.178;2023-05-01T00:49:25;101316.78;;;15.47;70.84
43420;BME280;29017;51.514;-0.178;2023-05-01T00:51:52;101306.34;;;15.45;70.04
43420;BME280;29017;51.514;-0.178;2023-05-01T00:54:19;101301.88;;;15.46;70.08
43420;BME280;29017;51.514;-0.178;2023-05-01T00:56:47;101307.84;;;15.48;71.49
43420;BME280;29017;51.514;-0.178;2023-05-01T00:59:14;101298.06;;;15.48;70.45
43420;BME280;29017;51.514;-0.178;2023-05-01T01:01:44;101294.72;;;15.46;69.84
43420;BME280;29017;51.514;-0.178;2023-05-01T01:04:12;101286.63;;;15.48;70.74
43420;BME280;29017;51.514;-0.178;2023-05-01T01:11:37;101291.59;;;15.43;69.57
43420;BME280;29017;51.514;-0.178;2023-05-01T01:14:07;101281.31;;;15.39;71.20
43420;BME280;29017;51.514;-0.178;2023-05-01T01:16:38;101283.00;;;15.40;71.04
43420;BME280;29017;51.514;-0.178;2023-05-01T01:21:37;101285.34;;;15.35;71.54
43420;BME280;29017;51.514;-0.178;2023-05-01T01:34:24;101268.63;;;15.27;73.04
43420;BME280;29017;51.514;-0.178;2023-05-01T01:39:35;101249.41;;;15.25;73.16
43420;BME280;29017;51.514;-0.178;2023-05-01T01:42:05;101246.44;;;15.28;73.46
43420;BME280;29017;51.514;-0.178;2023-05-01T01:44:36;101249.72;;;15.30;73.24
43420;BME280;29017;51.514;-0.178;2023-05-01T01:47:05;101246.25;;;15.29;72.95
43420;BME280;29017;51.514;-0.178;2023-05-01T01:49:32;101242.13;;;15.27;73.50
43420;BME280;29017;51.514;-0.178;2023-05-01T01:52:02;101238.66;;;15.26;73.59
43420;BME280;29017;51.514;-0.178;2023-05-01T01:54:32;101232.88;;;15.23;73.43
43420;BME280;29017;51.514;-0.178;2023-05-01T01:57:01;101225.25;;;15.20;73.26
43420;BME280;29017;51.514;-0.178;2023-05-01T01:59:29;101225.28;;;15.12;73.94
43420;BME280;29017;51.514;-0.178;2023-05-01T02:01:57;101222.50;;;15.05;74.50
43420;BME280;29017;51.514;-0.178;2023-05-01T02:04:28;101215.91;;;15.01;74.42
43420;BME280;29017;51.514;-0.178;2023-05-01T02:06:56;101216.41;;;14.96;74.53
43420;BME280;29017;51.514;-0.178;2023-05-01T02:09:24;101216.75;;;14.93;74.96
43420;BME280;29017;51.514;-0.178;2023-05-01T02:11:52;101221.72;;;14.88;75.27
43420;BME280;29017;51.514;-0.178;2023-05-01T02:14:21;101222.56;;;14.89;75.73
43420;BME280;29017;51.514;-0.178;2023-05-01T02:16:49;101216.09;;;14.91;75.92
43420;BME280;29017;51.514;-0.178;2023-05-01T02:19:16;101212.63;;;14.91;75.67
43420;BME280;29017;51.514;-0.178;2023-05-01T02:21:44;101210.97;;;14.90;75.63
43420;BME280;29017;51.514;-0.178;2023-05-01T02:24:11;101206.66;;;14.89;75.75
43420;BME280;29017;51.514;-0.178;2023-05-01T02:26:42;101201.56;;;14.87;76.44
43420;BME280;29017;51.514;-0.178;2023-05-01T02:29:11;101201.56;;;14.87;77.23
43420;BME280;29017;51.514;-0.178;2023-05-01T02:31:38;101209.31;;;14.89;77.09
43420;BME280;29017;51.514;-0.178;2023-05-01T02:34:05;101193.59;;;14.87;76.60
43420;BME280;29017;51.514;-0.178;2023-05-01T02:36:32;101191.94;;;14.86;76.71
43420;BME280;29017;51.514;-0.178;2023-05-01T02:38:59;101191.94;;;14.86;76.74
43420;BME280;29017;51.514;-0.178;2023-05-01T02:41:27;101192.41;;;14.90;77.50
43420;BME280;29017;51.514;-0.178;2023-05-01T02:43:55;101186.47;;;14.88;77.48
43420;BME280;29017;51.514;-0.178;2023-05-01T02:46:24;101191.94;;;14.86;77.13
43420;BME280;29017;51.514;-0.178;2023-05-01T02:48:53;101195.09;;;14.82;77.40
43420;BME280;29017;51.514;-0.178;2023-05-01T02:51:20;101190.13;;;14.79;77.59
43420;BME280;29017;51.514;-0.178;2023-05-01T02:53:48;101185.03;;;14.77;78.13
43420;BME280;29017;51.514;-0.178;2023-05-01T02:56:15;101185.19;;;14.76;78.54
43420;BME280;29017;51.514;-0.178;2023-05-01T02:58:42;101185.84;;;14.78;78.69
43420;BME280;29017;51.514;-0.178;2023-05-01T03:01:09;101191.16;;;14.78;78.41
43420;BME280;29017;51.514;-0.178;2023-05-01T03:03:37;101192.97;;;14.77;78.53
43420;BME280;29017;51.514;-0.178;2023-05-01T03:06:03;101195.44;;;14.79;78.67
43420;BME280;29017;51.514;-0.178;2023-05-01T03:08:30;101196.44;;;14.78;79.02
43420;BME280;29017;51.514;-0.178;2023-05-01T03:11:03;101193.97;;;14.76;78.87
43420;BME280;29017;51.514;-0.178;2023-05-01T03:13:29;101191.31;;;14.76;79.12
43420;BME280;29017;51.514;-0.178;2023-05-01T03:15:56;101185.19;;;14.76;79.39
43420;BME280;29017;51.514;-0.178;2023-05-01T03:18:23;101185.34;;;14.74;79.31
43420;BME280;29017;51.514;-0.178;2023-05-01T03:20:51;101180.41;;;14.71;79.53
43420;BME280;29017;51.514;-0.178;2023-05-01T03:23:19;101182.22;;;14.71;79.94
43420;BME280;29017;51.514;-0.178;2023-05-01T03:25:46;101186.22;;;14.67;80.09
43420;BME280;29017;51.514;-0.178;2023-05-01T03:28:13;101179.44;;;14.64;80.46
43420;BME280;29017;51.514;-0.178;2023-05-01T03:30:40;101182.06;;;14.64;80.81
43420;BME280;29017;51.514;-0.178;2023-05-01T03:33:07;101185.38;;;14.66;82.12
43420;BME280;29017;51.514;-0.178;2023-05-01T03:35:34;101184.56;;;14.66;81.87
43420;BME280;29017;51.514;-0.178;2023-05-01T03:38:01;101177.44;;;14.66;81.78
43420;BME280;29017;51.514;-0.178;2023-05-01T03:40:28;101180.94;;;14.67;81.87
43420;BME280;29017;51.514;-0.178;2023-05-01T03:42:54;101179.75;;;14.69;82.03
43420;BME280;29017;51.514;-0.178;2023-05-01T03:45:21;101183.22;;;14.70;81.88
43420;BME280;29017;51.514;-0.178;2023-05-01T03:47:48;101181.41;;;14.70;82.91
43420;BME280;29017;51.514;-0.178;2023-05-01T03:50:16;101184.88;;;14.71;82.13
43420;BME280;29017;51.514;-0.178;2023-05-01T03:52:42;101185.88;;;14.70;81.76
43420;BME280;29017;51.514;-0.178;2023-05-01T03:55:09;101177.28;;;14.68;81.80
43420;BME280;29017;51.514;-0.178;2023-05-01T03:57:36;101184.41;;;14.67;80.87
43420;BME280;29017;51.514;-0.178;2023-05-01T04:00:03;101179.63;;;14.63;80.45
43420;BME280;29017;51.514;-0.178;2023-05-01T04:02:32;101187.56;;;14.63;80.96
43420;BME280;29017;51.514;-0.178;2023-05-01T04:04:59;101194.00;;;14.60;80.65
43420;BME280;29017;51.514;-0.178;2023-05-01T04:07:26;101189.91;;;14.58;80.63
43420;BME280;29017;51.514;-0.178;2023-05-01T04:09:53;101187.41;;;14.56;81.11
43420;BME280;29017;51.514;-0.178;2023-05-01T04:12:20;101183.44;;;14.52;80.46
43420;BME280;29017;51.514;-0.178;2023-05-01T04:14:47;101187.09;;;14.51;79.96
43420;BME280;29017;51.514;-0.178;2023-05-01T04:17:14;101180.97;;;14.50;79.98
43420;BME280;29017;51.514;-0.178;2023-05-01T04:19:40;101187.25;;;14.49;80.27
43420;BME280;29017;51.514;-0.178;2023-05-01T04:22:07;101185.44;;;14.50;79.87
43420;BME280;29017;51.514;-0.178;2023-05-01T04:24:34;101184.94;;;14.46;79.79
43420;BME280;29017;51.514;-0.178;2023-05-01T04:27:02;101193.72;;;14.39;79.91
43420;BME280;29017;51.514;-0.178;2023-05-01T04:29:30;101190.44;;;14.37;79.98
43420;BME280;29017;51.514;-0.178;2023-05-01T04:31:57;101188.91;;;14.34;79.67
43420;BME280;29017;51.514;-0.178;2023-05-01T04:34:24;101191.72;;;14.33;79.45
43420;BME280;29017;51.514;-0.178;2023-05-01T04:36:54;101193.72;;;14.31;79.37
43420;BME280;29017;51.514;-0.178;2023-05-01T04:39:22;101188.59;;;14.29;79.88
43420;BME280;29017;51.514;-0.178;2023-05-01T04:41:49;101190.41;;;14.29;80.08
43420;BME280;29017;51.514;-0.178;2023-05-01T04:44:16;101179.66;;;14.30;79.63
43420;BME280;29017;51.514;-0.178;2023-05-01T04:46:43;101186.59;;;14.31;79.74
43420;BME280;29017;51.514;-0.178;2023-05-01T04:49:10;101186.59;;;14.31;79.57
43420;BME280;29017;51.514;-0.178;2023-05-01T04:51:37;101196.38;;;14.31;79.23
43420;BME280;29017;51.514;-0.178;2023-05-01T04:54:04;101193.72;;;14.31;79.18
43420;BME280;29017;51.514;-0.178;2023-05-01T04:56:31;101192.06;;;14.30;79.13
43420;BME280;29017;51.514;-0.178;2023-05-01T04:59:00;101190.41;;;14.29;79.59
43420;BME280;29017;51.514;-0.178;2023-05-01T05:01:27;101194.72;;;14.30;79.74
43420;BME280;29017;51.514;-0.178;2023-05-01T05:03:54;101195.53;;;14.30;79.89
43420;BME280;29017;51.514;-0.178;2023-05-01T05:06:21;101190.41;;;14.29;79.44
43420;BME280;29017;51.514;-0.178;2023-05-01T05:08:48;101190.75;;;14.26;78.75
43420;BME280;29017;51.514;-0.178;2023-05-01T05:11:18;101195.38;;;14.24;78.76
43420;BME280;29017;51.514;-0.178;2023-05-01T05:13:44;101191.91;;;14.23;78.17
43420;BME280;29017;51.514;-0.178;2023-05-01T05:16:12;101198.38;;;14.21;77.13
43420;BME280;29017;51.514;-0.178;2023-05-01T05:18:39;101195.88;;;14.19;77.60
43420;BME280;29017;51.514;-0.178;2023-05-01T05:21:06;101195.88;;;14.19;77.84
43420;BME280;29017;51.514;-0.178;2023-05-01T05:23:34;101196.53;;;14.21;77.50
43420;BME280;29017;51.514;-0.178;2023-05-01T05:26:01;101191.06;;;14.23;76.86
43420;BME280;29017;51.514;-0.178;2023-05-01T05:28:28;101205.63;;;14.27;76.89
43420;BME280;29017;51.514;-0.178;2023-05-01T05:30:56;101204.47;;;14.29;76.92
43420;BME280;29017;51.514;-0.178;2023-05-01T05:33:23;101198.34;;;14.29;76.53
43420;BME280;29017;51.514;-0.178;2023-05-01T05:35:50;101212.41;;;14.29;76.76
43420;BME280;29017;51.514;-0.178;2023-05-01T05:38:18;101204.81;;;14.26;76.67
43420;BME280;29017;51.514;-0.178;2023-05-01T05:40:45;101204.97;;;14.25;76.45
43420;BME280;29017;51.514;-0.178;2023-05-01T05:43:11;101207.47;;;14.26;76.40
43420;BME280;29017;51.514;-0.178;2023-05-01T05:45:38;101203.00;;;14.27;77.17
43420;BME280;29017;51.514;-0.178;2023-05-01T05:48:06;101204.63;;;14.28;77.24
43420;BME280;29017;51.514;-0.178;2023-05-01T05:50:33;101211.41;;;14.30;76.47
43420;BME280;29017;51.514;-0.178;2023-05-01T05:52:59;101203.31;;;14.32;76.51
43420;BME280;29017;51.514;-0.178;2023-05-01T05:55:26;101206.78;;;14.32;76.38
43420;BME280;29017;51.514;-0.178;2023-05-01T05:57:53;101206.59;;;14.34;76.33
43420;BME280;29017;51.514;-0.178;2023-05-01T06:00:20;101208.97;;;14.37;76.48
43420;BME280;29017;51.514;-0.178;2023-05-01T06:02:47;101207.16;;;14.37;76.29
43420;BME280;29017;51.514;-0.178;2023-05-01T06:05:14;101202.97;;;14.35;76.29
43420;BME280;29017;51.514;-0.178;2023-05-01T06:07:41;101205.31;;;14.38;76.30
43420;BME280;29017;51.514;-0.178;2023-05-01T06:10:09;101208.97;;;14.37;76.68
43420;BME280;29017;51.514;-0.178;2023-05-01T06:12:37;101209.09;;;14.35;76.31
43420;BME280;29017;51.514;-0.178;2023-05-01T06:15:13;101208.25;;;14.35;76.63
43420;BME280;29017;51.514;-0.178;2023-05-01T06:17:42;101207.94;;;14.38;76.52
43420;BME280;29017;51.514;-0.178;2023-05-01T06:20:09;101214.59;;;14.42;76.67
43420;BME280;29017;51.514;-0.178;2023-05-01T06:22:37;101210.59;;;14.46;76.76
43420;BME280;29017;51.514;-0.178;2023-05-01T06:25:04;101212.75;;;14.50;76.73
43420;BME280;29017;51.514;-0.178;2023-05-01T06:27:32;101206.25;;;14.53;77.07
43420;BME280;29017;51.514;-0.178;2023-05-01T06:29:59;101210.41;;;14.55;77.44
43420;BME280;29017;51.514;-0.178;2023-05-01T06:32:26;101206.44;;;14.60;76.63
43420;BME280;29017;51.514;-0.178;2023-05-01T06:34:53;101213.03;;;14.64;76.61
43420;BME280;29017;51.514;-0.178;2023-05-01T06:37:19;101217.50;;;14.71;76.67
43420;BME280;29017;51.514;-0.178;2023-05-01T06:39:46;101215.16;;;14.76;76.55
43420;BME280;29017;51.514;-0.178;2023-05-01T06:42:13;101218.44;;;14.78;75.97
43420;BME280;29017;51.514;-0.178;2023-05-01T06:44:42;101210.84;;;14.75;76.04
43420;BME280;29017;51.514;-0.178;2023-05-01T06:47:09;101212.50;;;14.76;77.62
43420;BME280;29017;51.514;-0.178;2023-05-01T06:49:36;101217.66;;;14.78;76.98
43420;BME280;29017;51.514;-0.178;2023-05-01T06:52:03;101216.16;;;14.75;76.33
43420;BME280;29017;51.514;-0.178;2023-05-01T06:54:30;101206.38;;;14.76;76.61
43420;BME280;29017;51.514;-0.178;2023-05-01T06:56:57;101208.50;;;14.80;76.83
43420;BME280;29017;51.514;-0.178;2023-05-01T06:59:24;101208.66;;;14.87;76.33
43420;BME280;29017;51.514;-0.178;2023-05-01T07:01:51;101202.69;;;14.93;76.92
43420;BME280;29017;51.514;-0.178;2023-05-01T07:04:18;101205.97;;;14.95;76.55
43420;BME280;29017;51.514;-0.178;2023-05-01T07:06:45;101213.41;;;14.99;76.43
43420;BME280;29017;51.514;-0.178;2023-05-01T07:09:12;101215.22;;;14.99;76.20
43420;BME280;29017;51.514;-0.178;2023-05-01T07:11:39;101210.28;;;14.96;76.88
43420;BME280;29017;51.514;-0.178;2023-05-01T07:14:07;101216.75;;;14.93;76.71
43420;BME280;29017;51.514;-0.178;2023-05-01T07:16:34;101216.09;;;14.91;77.15
43420;BME280;29017;51.514;-0.178;2023-05-01T07:19:01;101210.81;;;14.91;77.44
43420;BME280;29017;51.514;-0.178;2023-05-01T07:21:28;101214.44;;;14.90;77.47
43420;BME280;29017;51.514;-0.178;2023-05-01T07:23:55;101218.59;;;14.93;77.41
43420;BME280;29017;51.514;-0.178;2023-05-01T07:26:23;101226.19;;;14.96;77.38
43420;BME280;29017;51.514;-0.178;2023-05-01T07:28:51;101228.84;;;14.96;77.56
43420;BME280;29017;51.514;-0.178;2023-05-01T07:31:18;101228.00;;;14.95;77.29
43420;BME280;29017;51.514;-0.178;2023-05-01T07:33:46;101232.31;;;14.96;77.28
43420;BME280;29017;51.514;-0.178;2023-05-01T07:36:13;101236.94;;;14.94;78.24
43420;BME280;29017;51.514;-0.178;2023-05-01T07:38:40;101238.59;;;14.95;77.97
43420;BME280;29017;51.514;-0.178;2023-05-01T07:41:07;101244.38;;;14.99;77.36
43420;BME280;29017;51.514;-0.178;2023-05-01T07:43:34;101235.44;;;15.00;77.13
43420;BME280;29017;51.514;-0.178;2023-05-01T07:46:00;101246.88;;;15.01;77.37
43420;BME280;29017;51.514;-0.178;2023-05-01T07:48:27;101245.06;;;15.01;77.20
43420;BME280;29017;51.514;-0.178;2023-05-01T07:50:54;101248.53;;;15.02;78.03
43420;BME280;29017;51.514;-0.178;2023-05-01T07:53:22;101248.38;;;14.95;77.69
43420;BME280;29017;51.514;-0.178;2023-05-01T07:55:49;101257.16;;;14.95;77.63
43420;BME280;29017;51.514;-0.178;2023-05-01T07:58:16;101255.34;;;14.96;78.62
43420;BME280;29017;51.514;-0.178;2023-05-01T08:00:43;101251.38;;;14.92;77.69
43420;BME280;29017;51.514;-0.178;2023-05-01T08:03:11;101255.03;;;14.91;77.70
43420;BME280;29017;51.514;-0.178;2023-05-01T08:05:40;101250.19;;;14.94;77.56
43420;BME280;29017;51.514;-0.178;2023-05-01T08:08:07;101246.03;;;15.00;77.74
43420;BME280;29017;51.514;-0.178;2023-05-01T08:10:35;101255.50;;;15.03;77.76
43420;BME280;29017;51.514;-0.178;2023-05-01T08:13:02;101258.44;;;15.08;77.54
43420;BME280;29017;51.514;-0.178;2023-05-01T08:15:29;101252.78;;;15.11;77.38
43420;BME280;29017;51.514;-0.178;2023-05-01T08:17:56;101254.94;;;15.15;77.28
43420;BME280;29017;51.514;-0.178;2023-05-01T08:20:23;101246.66;;;15.18;77.46
43420;BME280;29017;51.514;-0.178;2023-05-01T08:22:50;101254.09;;;15.23;77.67
43420;BME280;29017;51.514;-0.178;2023-05-01T08:25:17;101248.41;;;15.26;77.05
43420;BME280;29017;51.514;-0.178;2023-05-01T08:27:44;101252.72;;;15.27;76.67
43420;BME280;29017;51.514;-0.178;2023-05-01T08:30:11;101250.09;;;15.27;76.91
43420;BME280;29017;51.514;-0.178;2023-05-01T08:32:38;101261.31;;;15.29;76.94
43420;BME280;29017;51.514;-0.178;2023-05-01T08:35:05;101251.22;;;15.32;76.66
43420;BME280;29017;51.514;-0.178;2023-05-01T08:37:32;101254.69;;;15.33;76.79
43420;BME280;29017;51.514;-0.178;2023-05-01T08:39:59;101256.84;;;15.29;76.99
43420;BME280;29017;51.514;-0.178;2023-05-01T08:42:25;101252.88;;;15.33;76.86
43420;BME280;29017;51.514;-0.178;2023-05-01T08:44:57;101260.47;;;15.36;76.65
43420;BME280;29017;51.514;-0.178;2023-05-01T08:47:25;101253.66;;;15.42;76.76
43420;BME280;29017;51.514;-0.178;2023-05-01T08:49:53;101256.44;;;15.49;76.69
43420;BME280;29017;51.514;-0.178;2023-05-01T08:52:21;101256.13;;;15.52;77.23
43420;BME280;29017;51.514;-0.178;2023-05-01T08:54:49;101259.44;;;15.54;76.75
43420;BME280;29017;51.514;-0.178;2023-05-01T08:57:20;101255.59;;;15.56;76.71
43420;BME280;29017;51.514;-0.178;2023-05-01T08:59:47;101262.69;;;15.64;76.27
43420;BME280;29017;51.514;-0.178;2023-05-01T09:02:16;101253.84;;;15.71;76.15
43420;BME280;29017;51.514;-0.178;2023-05-01T09:04:44;101258.75;;;15.82;76.82
43420;BME280;29017;51.514;-0.178;2023-05-01T09:07:12;101270.13;;;15.91;76.29
43420;BME280;29017;51.514;-0.178;2023-05-01T09:09:39;101269.25;;;15.99;75.64
43420;BME280;29017;51.514;-0.178;2023-05-01T09:14:43;101259.38;;;16.07;74.79
43420;BME280;29017;51.514;-0.178;2023-05-01T09:17:11;101266.00;;;16.11;74.54
43420;BME280;29017;51.514;-0.178;2023-05-01T09:19:38;101264.63;;;16.15;74.86
43420;BME280;29017;51.514;-0.178;2023-05-01T09:22:06;101268.75;;;16.18;74.89
43420;BME280;29017;51.514;-0.178;2023-05-01T09:24:36;101268.59;;;16.19;75.50
43420;BME280;29017;51.514;-0.178;2023-05-01T09:27:04;101265.75;;;16.21;75.33
43420;BME280;29017;51.514;-0.178;2023-05-01T09:34:43;101282.78;;;16.26;76.10
43420;BME280;29017;51.514;-0.178;2023-05-01T09:37:11;101277.69;;;16.25;75.83
43420;BME280;29017;51.514;-0.178;2023-05-01T09:39:39;101280.84;;;16.20;76.23
43420;BME280;29017;51.514;-0.178;2023-05-01T09:42:06;101278.84;;;16.22;76.07
43420;BME280;29017;51.514;-0.178;2023-05-01T09:44:39;101278.69;;;16.24;75.29
43420;BME280;29017;51.514;-0.178;2023-05-01T09:47:07;101273.53;;;16.22;75.26
43420;BME280;29017;51.514;-0.178;2023-05-01T09:49:44;101287.66;;;16.23;75.18
43420;BME280;29017;51.514;-0.178;2023-05-01T09:52:12;101288.31;;;16.25;75.26
43420;BME280;29017;51.514;-0.178;2023-05-01T09:54:40;101291.06;;;16.32;75.23
43420;BME280;29017;51.514;-0.178;2023-05-01T09:57:07;101288.81;;;16.43;75.15
43420;BME280;29017;51.514;-0.178;2023-05-01T09:59:34;101294.16;;;16.58;74.51
43420;BME280;29017;51.514;-0.178;2023-05-01T10:02:01;101293.56;;;16.71;73.75
43420;BME280;29017;51.514;-0.178;2023-05-01T10:04:29;101298.34;;;16.75;73.21
43420;BME280;29017;51.514;-0.178;2023-05-01T10:06:56;101299.63;;;16.79;73.42
43420;BME280;29017;51.514;-0.178;2023-05-01T10:09:27;101303.41;;;16.85;73.58
43420;BME280;29017;51.514;-0.178;2023-05-01T10:11:57;101309.63;;;16.92;73.00
43420;BME280;29017;51.514;-0.178;2023-05-01T10:14:25;101306.78;;;16.93;72.80
43420;BME280;29017;51.514;-0.178;2023-05-01T10:16:53;101301.19;;;17.03;71.73
43420;BME280;29017;51.514;-0.178;2023-05-01T10:19:23;101299.28;;;17.12;70.87
43420;BME280;29017;51.514;-0.178;2023-05-01T10:21:50;101298.81;;;17.23;70.50
43420;BME280;29017;51.514;-0.178;2023-05-01T10:24:18;101300.91;;;17.27;70.21
43420;BME280;29017;51.514;-0.178;2023-05-01T10:26:47;101302.81;;;17.33;69.93
43420;BME280;29017;51.514;-0.178;2023-05-01T10:29:14;101297.88;;;17.45;69.57
43420;BME280;29017;51.514;-0.178;2023-05-01T10:31:41;101296.56;;;17.56;68.72
43420;BME280;29017;51.514;-0.178;2023-05-01T10:34:09;101297.56;;;17.69;67.68
43420;BME280;29017;51.514;-0.178;2023-05-01T10:39:05;101297.53;;;17.84;66.41
43420;BME280;29017;51.514;-0.178;2023-05-01T10:46:45;101292.97;;;17.99;65.33
43420;BME280;29017;51.514;-0.178;2023-05-01T10:49:12;101292.41;;;18.04;64.31
43420;BME280;29017;51.514;-0.178;2023-05-01T10:56:43;101289.06;;;18.16;63.75
43420;BME280;29017;51.514;-0.178;2023-05-01T10:59:10;101282.13;;;18.22;63.21
43420;BME280;29017;51.514;-0.178;2023-05-01T11:01:39;101285.66;;;18.29;62.28
43420;BME280;29017;51.514;-0.178;2023-05-01T11:04:07;101291.25;;;18.34;61.34
43420;BME280;29017;51.514;-0.178;2023-05-01T11:12:04;101279.00;;;18.61;59.90
43420;BME280;29017;51.514;-0.178;2023-05-01T11:17:08;101271.22;;;18.66;59.67
43420;BME280;29017;51.514;-0.178;2023-05-01T11:22:05;101278.47;;;18.72;59.69
43420;BME280;29017;51.514;-0.178;2023-05-01T11:24:37;101280.97;;;18.80;59.66
43420;BME280;29017;51.514;-0.178;2023-05-01T11:27:05;101274.44;;;18.83;58.74
43420;BME280;29017;51.514;-0.178;2023-05-01T11:29:32;101273.00;;;18.87;60.40
43420;BME280;29017;51.514;-0.178;2023-05-01T11:32:00;101277.34;;;18.88;58.80
43420;BME280;29017;51.514;-0.178;2023-05-01T11:34:33;101274.31;;;18.97;58.80
43420;BME280;29017;51.514;-0.178;2023-05-01T11:37:01;101277.44;;;19.07;58.94
43420;BME280;29017;51.514;-0.178;2023-05-01T11:39:28;101276.66;;;19.13;57.75
43420;BME280;29017;51.514;-0.178;2023-05-01T11:44:32;101279.78;;;19.23;57.39
43420;BME280;29017;51.514;-0.178;2023-05-01T11:46:58;101275.47;;;19.22;58.78
43420;BME280;29017;51.514;-0.178;2023-05-01T11:49:27;101279.34;;;19.20;60.83
43420;BME280;29017;51.514;-0.178;2023-05-01T11:52:00;101279.31;;;19.13;57.83
43420;BME280;29017;51.514;-0.178;2023-05-01T11:54:30;101276.78;;;18.99;57.70
43420;BME280;29017;51.514;-0.178;2023-05-01T11:56:58;101275.72;;;18.93;58.79
43420;BME280;29017;51.514;-0.178;2023-05-01T11:59:25;101277.34;;;18.88;58.78
43420;BME280;29017;51.514;-0.178;2023-05-01T12:01:52;101277.53;;;18.86;59.82
43420;BME280;29017;51.514;-0.178;2023-05-01T12:04:27;101274.84;;;18.86;59.01
43420;BME280;29017;51.514;-0.178;2023-05-01T12:06:58;101273.66;;;18.89;57.49
43420;BME280;29017;51.514;-0.178;2023-05-01T12:09:25;101289.69;;;18.95;57.86
43420;BME280;29017;51.514;-0.178;2023-05-01T12:11:53;101287.66;;;18.97;57.03
43420;BME280;29017;51.514;-0.178;2023-05-01T12:14:20;101294.81;;;18.97;58.11
43420;BME280;29017;51.514;-0.178;2023-05-01T12:16:48;101304.66;;;18.96;58.28
43420;BME280;29017;51.514;-0.178;2023-05-01T12:19:15;101295.22;;;18.94;60.96
43420;BME280;29017;51.514;-0.178;2023-05-01T12:21:43;101295.19;;;18.87;62.60
43420;BME280;29017;51.514;-0.178;2023-05-01T12:26:42;101289.75;;;18.74;65.17
43420;BME280;29017;51.514;-0.178;2023-05-01T12:29:09;101283.72;;;18.65;63.89
43420;BME280;29017;51.514;-0.178;2023-05-01T12:31:44;101283.25;;;18.55;62.75
43420;BME280;29017;51.514;-0.178;2023-05-01T12:34:12;101286.16;;;18.60;63.68
43420;BME280;29017;51.514;-0.178;2023-05-01T12:36:39;101286.66;;;18.70;64.37
43420;BME280;29017;51.514;-0.178;2023-05-01T12:39:07;101292.03;;;18.77;61.75
43420;BME280;29017;51.514;-0.178;2023-05-01T12:46:39;101293.38;;;18.94;57.69
43420;BME280;29017;51.514;-0.178;2023-05-01T12:49:06;101298.09;;;18.92;57.16
43420;BME280;29017;51.514;-0.178;2023-05-01T12:51:33;101298.84;;;18.86;58.66
43420;BME280;29017;51.514;-0.178;2023-05-01T12:54:00;101308.09;;;18.84;57.77
43420;BME280;29017;51.514;-0.178;2023-05-01T12:56:27;101314.63;;;18.81;62.64
43420;BME280;29017;51.514;-0.178;2023-05-01T12:58:54;101304.28;;;18.71;64.14
43420;BME280;29017;51.514;-0.178;2023-05-01T13:01:24;101306.91;;;18.65;67.72
43420;BME280;29017;51.514;-0.178;2023-05-01T13:03:53;101308.50;;;18.59;68.79
43420;BME280;29017;51.514;-0.178;2023-05-01T13:06:31;101318.28;;;18.52;69.08
43420;BME280;29017;51.514;-0.178;2023-05-01T13:09:07;101304.06;;;18.45;64.22
43420;BME280;29017;51.514;-0.178;2023-05-01T13:11:35;101311.03;;;18.46;65.21
43420;BME280;29017;51.514;-0.178;2023-05-01T13:14:06;101317.72;;;18.57;61.84
43420;BME280;29017;51.514;-0.178;2023-05-01T13:16:42;101315.88;;;18.57;61.47
43420;BME280;29017;51.514;-0.178;2023-05-01T13:19:10;101309.16;;;18.61;62.22
43420;BME280;29017;51.514;-0.178;2023-05-01T13:21:44;101318.41;;;18.65;62.68
43420;BME280;29017;51.514;-0.178;2023-05-01T13:24:11;101321.13;;;18.72;60.72
43420;BME280;29017;51.514;-0.178;2023-05-01T13:26:39;101316.19;;;18.69;60.20
43420;BME280;29017;51.514;-0.178;2023-05-01T13:29:06;101314.78;;;18.73;61.48
43420;BME280;29017;51.514;-0.178;2023-05-01T13:31:41;101319.28;;;18.72;61.35
43420;BME280;29017;51.514;-0.178;2023-05-01T13:34:09;101319.47;;;18.71;62.06
43420;BME280;29017;51.514;-0.178;2023-05-01T13:36:35;101306.97;;;18.71;60.81
43420;BME280;29017;51.514;-0.178;2023-05-01T13:39:02;101329.31;;;18.70;61.26
43420;BME280;29017;51.514;-0.178;2023-05-01T13:41:30;101326.84;;;18.69;61.06
43420;BME280;29017;51.514;-0.178;2023-05-01T13:43:57;101323.38;;;18.68;61.77